sensor_id;sensor_type;location;lat;lon;timestamp;pressure;altitude;pressure_sealevel;temperature;humidity
43820;BME280;67762;52.476;6.046;2023-03-23T00:03:33;100093.66;;;11.63;86.58
43820;BME280;67762;52.476;6.046;2023-03-23T00:05:59;100085.44;;;11.64;85.88
43820;BME280;67762;52.476;6.046;2023-03-23T00:08:33;100102.84;;;11.75;84.76
43820;BME280;67762;52.476;6.046;2023-03-23T00:11:06;100048.16;;;11.78;84.52
43820;BME280;67762;52.476;6.046;2023-03-23T00:13:33;100115.38;;;11.74;85.11
43820;BME280;67762;52.476;6.046;2023-03-23T00:15:59;100096.03;;;11.72;85.57
43820;BME280;67762;52.476;6.046;2023-03-23T00:18:25;100078.97;;;11.73;84.29
43820;BME280;67762;52.476;6.046;2023-03-23T00:20:53;100004.25;;;11.65;84.05
43820;BME280;67762;52.476;6.046;2023-03-23T00:23:20;100052.34;;;11.65;83.91
43820;BME280;67762;52.476;6.046;2023-03-23T00:25:50;100044.84;;;11.54;84.52
43820;BME280;67762;52.476;6.046;2023-03-23T00:28:18;100043.28;;;11.45;84.58
43820;BME280;67762;52.476;6.046;2023-03-23T00:31:03;100050.22;;;11.40;84.48
43820;BME280;67762;52.476;6.046;2023-03-23T00:33:31;100053.47;;;11.35;85.86
43820;BME280;67762;52.476;6.046;2023-03-23T00:35:59;100042.56;;;11.37;86.25
43820;BME280;67762;52.476;6.046;2023-03-23T00:38:25;100058.44;;;11.38;85.47
43820;BME280;67762;52.476;6.046;2023-03-23T00:40:52;100077.38;;;11.43;85.08
43820;BME280;67762;52.476;6.046;2023-03-23T00:43:20;100085.91;;;11.53;84.99
43820;BME280;67762;52.476;6.046;2023-03-23T00:45:50;100094.41;;;11.57;84.27
43820;BME280;67762;52.476;6.046;2023-03-23T00:48:19;100085.81;;;11.61;84.24
43820;BME280;67762;52.476;6.046;2023-03-23T00:50:46;100088.72;;;11.66;83.83
43820;BME280;67762;52.476;6.046;2023-03-23T00:53:12;100093.91;;;11.68;83.41
43820;BME280;67762;52.476;6.046;2023-03-23T00:55:40;100079.06;;;11.65;83.60
43820;BME280;67762;52.476;6.046;2023-03-23T00:58:06;100069.41;;;11.64;83.28
43820;BME280;67762;52.476;6.046;2023-03-23T01:00:32;100049.69;;;11.65;83.46
43820;BME280;67762;52.476;6.046;2023-03-23T01:02:57;100061.66;;;11.69;82.80
43820;BME280;67762;52.476;6.046;2023-03-23T01:05:23;100062.94;;;11.73;83.10
43820;BME280;67762;52.476;6.046;2023-03-23T01:07:49;100061.28;;;11.72;82.82
43820;BME280;67762;52.476;6.046;2023-03-23T01:10:15;100077.31;;;11.72;83.10
43820;BME280;67762;52.476;6.046;2023-03-23T01:12:44;100058.63;;;11.72;83.01
43820;BME280;67762;52.476;6.046;2023-03-23T01:15:15;100048.56;;;11.74;83.66
43820;BME280;67762;52.476;6.046;2023-03-23T01:17:42;100039.53;;;11.76;83.21
43820;BME280;67762;52.476;6.046;2023-03-23T01:20:08;100045.72;;;11.76;82.27
43820;BME280;67762;52.476;6.046;2023-03-23T01:22:34;100035.19;;;11.74;83.12
43820;BME280;67762;52.476;6.046;2023-03-23T01:24:59;100056.97;;;11.71;82.74
43820;BME280;67762;52.476;6.046;2023-03-23T01:27:25;100042.78;;;11.71;83.17
43820;BME280;67762;52.476;6.046;2023-03-23T01:29:50;100044.97;;;11.67;82.36
43820;BME280;67762;52.476;6.046;2023-03-23T01:32:16;100038.78;;;11.67;82.90
43820;BME280;67762;52.476;6.046;2023-03-23T01:34:42;100039.06;;;11.72;82.35
43820;BME280;67762;52.476;6.046;2023-03-23T01:37:08;100043.22;;;11.74;82.90
43820;BME280;67762;52.476;6.046;2023-03-23T01:39:35;100044.03;;;11.75;82.51
43820;BME280;67762;52.476;6.046;2023-03-23T01:42:01;100047.91;;;11.72;82.12
43820;BME280;67762;52.476;6.046;2023-03-23T01:47:04;100011.97;;;11.75;82.59
43820;BME280;67762;52.476;6.046;2023-03-23T01:49:36;100020.66;;;11.77;82.10
43820;BME280;67762;52.476;6.046;2023-03-23T01:52:07;100017.78;;;11.79;81.47
43820;BME280;67762;52.476;6.046;2023-03-23T01:54:36;100020.44;;;11.79;82.47
43820;BME280;67762;52.476;6.046;2023-03-23T01:57:07;100016.31;;;11.76;82.13
43820;BME280;67762;52.476;6.046;2023-03-23T01:59:35;100003.78;;;11.77;82.25
43820;BME280;67762;52.476;6.046;2023-03-23T02:02:24;100015.94;;;11.79;81.16
43820;BME280;67762;52.476;6.046;2023-03-23T02:04:51;100006.06;;;11.80;81.50
43820;BME280;67762;52.476;6.046;2023-03-23T02:07:21;100013.06;;;11.81;81.21
43820;BME280;67762;52.476;6.046;2023-03-23T02:09:50;99987.38;;;11.80;80.44
43820;BME280;67762;52.476;6.046;2023-03-23T02:12:17;100013.13;;;11.87;79.90
43820;BME280;67762;52.476;6.046;2023-03-23T02:14:43;100018.25;;;11.89;80.04
43820;BME280;67762;52.476;6.046;2023-03-23T02:17:17;100019.31;;;11.88;80.02
43820;BME280;67762;52.476;6.046;2023-03-23T02:34:05;99995.88;;;11.90;79.86
43820;BME280;67762;52.476;6.046;2023-03-23T02:39:26;99993.00;;;11.91;79.79
43820;BME280;67762;52.476;6.046;2023-03-23T02:42:17;99997.16;;;11.94;80.12
43820;BME280;67762;52.476;6.046;2023-03-23T02:44:47;100000.84;;;11.93;79.59
43820;BME280;67762;52.476;6.046;2023-03-23T02:47:20;100003.69;;;11.91;79.66
43820;BME280;67762;52.476;6.046;2023-03-23T02:49:49;99995.88;;;11.90;80.60
43820;BME280;67762;52.476;6.046;2023-03-23T02:52:20;99981.88;;;11.88;79.93
43820;BME280;67762;52.476;6.046;2023-03-23T02:54:49;99998.16;;;11.93;79.85
43820;BME280;67762;52.476;6.046;2023-03-23T02:57:16;99988.47;;;11.92;80.12
43820;BME280;67762;52.476;6.046;2023-03-23T02:59:45;99987.47;;;11.93;80.59
43820;BME280;67762;52.476;6.046;2023-03-23T03:04:48;99986.47;;;11.94;79.99
43820;BME280;67762;52.476;6.046;2023-03-23T03:07:33;99972.66;;;11.90;80.53
43820;BME280;67762;52.476;6.046;2023-03-23T03:10:23;99965.06;;;11.94;80.44
43820;BME280;67762;52.476;6.046;2023-03-23T03:13:01;99988.72;;;11.97;80.42
43820;BME280;67762;52.476;6.046;2023-03-23T03:15:37;99982.19;;;11.99;79.90
43820;BME280;67762;52.476;6.046;2023-03-23T03:18:18;99970.44;;;12.00;80.20
43820;BME280;67762;52.476;6.046;2023-03-23T03:20:54;99959.56;;;12.02;80.89
43820;BME280;67762;52.476;6.046;2023-03-23T03:23:23;99978.69;;;11.99;80.96
43820;BME280;67762;52.476;6.046;2023-03-23T03:25:52;99983.38;;;11.97;80.73
43820;BME280;67762;52.476;6.046;2023-03-23T03:28:28;99973.94;;;12.01;80.26
43820;BME280;67762;52.476;6.046;2023-03-23T03:30:56;99953.56;;;12.00;80.34
43820;BME280;67762;52.476;6.046;2023-03-23T03:33:24;99954.03;;;12.03;80.66
43820;BME280;67762;52.476;6.046;2023-03-23T03:35:54;99964.13;;;12.08;80.29
43820;BME280;67762;52.476;6.046;2023-03-23T03:38:21;99966.63;;;12.09;79.95
43820;BME280;67762;52.476;6.046;2023-03-23T03:40:47;99962.28;;;12.08;79.83
43820;BME280;67762;52.476;6.046;2023-03-23T03:43:13;99958.78;;;12.08;80.11
43820;BME280;67762;52.476;6.046;2023-03-23T03:45:39;99952.81;;;12.06;80.61
43820;BME280;67762;52.476;6.046;2023-03-23T03:48:06;99948.28;;;12.06;81.15
43820;BME280;67762;52.476;6.046;2023-03-23T03:50:32;99949.94;;;12.07;81.02
43820;BME280;67762;52.476;6.046;2023-03-23T03:52:58;99948.72;;;12.10;80.00
43820;BME280;67762;52.476;6.046;2023-03-23T03:55:23;99950.75;;;12.08;81.30
43820;BME280;67762;52.476;6.046;2023-03-23T03:57:50;99951.81;;;12.13;80.51
43820;BME280;67762;52.476;6.046;2023-03-23T04:00:53;99954.75;;;12.18;80.33
43820;BME280;67762;52.476;6.046;2023-03-23T04:03:26;99954.75;;;12.18;79.75
43820;BME280;67762;52.476;6.046;2023-03-23T04:06:03;99940.16;;;12.21;80.20
43820;BME280;67762;52.476;6.046;2023-03-23T04:08:30;99940.41;;;12.26;79.54
43820;BME280;67762;52.476;6.046;2023-03-23T04:10:57;99934.00;;;12.20;79.55
43820;BME280;67762;52.476;6.046;2023-03-23T04:13:23;99946.34;;;12.21;79.17
43820;BME280;67762;52.476;6.046;2023-03-23T04:16:08;99951.25;;;12.18;80.01
43820;BME280;67762;52.476;6.046;2023-03-23T04:18:34;99949.78;;;12.15;79.66
43820;BME280;67762;52.476;6.046;2023-03-23T04:21:02;99943.03;;;12.19;80.27
43820;BME280;67762;52.476;6.046;2023-03-23T04:23:30;99944.06;;;12.18;80.02
43820;BME280;67762;52.476;6.046;2023-03-23T04:26:01;99950.03;;;12.20;79.64
43820;BME280;67762;52.476;6.046;2023-03-23T04:28:33;99916.94;;;12.21;79.97
43820;BME280;67762;52.476;6.046;2023-03-23T04:31:25;99939.78;;;12.24;79.64
43820;BME280;67762;52.476;6.046;2023-03-23T04:33:57;99923.06;;;12.22;78.91
43820;BME280;67762;52.476;6.046;2023-03-23T04:36:27;99924.28;;;12.13;80.05
43820;BME280;67762;52.476;6.046;2023-03-23T04:39:00;99963.84;;;11.96;80.85
43820;BME280;67762;52.476;6.046;2023-03-23T04:41:29;99950.38;;;11.83;80.75
43820;BME280;67762;52.476;6.046;2023-03-23T04:44:20;99968.84;;;11.78;81.86
43820;BME280;67762;52.476;6.046;2023-03-23T04:46:54;99953.75;;;11.70;82.40
43820;BME280;67762;52.476;6.046;2023-03-23T04:49:21;99966.53;;;11.54;82.73
43820;BME280;67762;52.476;6.046;2023-03-23T04:51:54;99980.06;;;11.31;83.37
43820;BME280;67762;52.476;6.046;2023-03-23T04:54:32;99957.84;;;11.09;83.09
43820;BME280;67762;52.476;6.046;2023-03-23T04:57:00;99988.66;;;10.91;83.28
43820;BME280;67762;52.476;6.046;2023-03-23T04:59:26;99971.19;;;10.74;83.25
43820;BME280;67762;52.476;6.046;2023-03-23T05:02:13;99973.50;;;10.62;84.34
43820;BME280;67762;52.476;6.046;2023-03-23T05:04:43;100007.31;;;10.47;84.26
43820;BME280;67762;52.476;6.046;2023-03-23T05:07:12;99993.16;;;10.32;85.11
43820;BME280;67762;52.476;6.046;2023-03-23T05:09:47;99991.59;;;10.23;85.54
43820;BME280;67762;52.476;6.046;2023-03-23T05:12:14;99986.34;;;10.15;86.02
43820;BME280;67762;52.476;6.046;2023-03-23T05:14:48;99997.69;;;10.09;86.35
43820;BME280;67762;52.476;6.046;2023-03-23T05:17:17;100000.91;;;10.04;86.92
43820;BME280;67762;52.476;6.046;2023-03-23T05:19:44;99997.06;;;10.07;86.55
43820;BME280;67762;52.476;6.046;2023-03-23T05:22:30;99996.84;;;10.08;87.51
43820;BME280;67762;52.476;6.046;2023-03-23T05:24:59;100000.19;;;10.10;87.38
43820;BME280;67762;52.476;6.046;2023-03-23T05:27:25;99999.03;;;10.13;87.62
43820;BME280;67762;52.476;6.046;2023-03-23T05:29:58;100017.13;;;10.17;88.13
43820;BME280;67762;52.476;6.046;2023-03-23T05:32:27;100035.25;;;10.22;89.04
43820;BME280;67762;52.476;6.046;2023-03-23T05:35:01;100038.22;;;10.27;88.69
43820;BME280;67762;52.476;6.046;2023-03-23T05:37:28;100031.50;;;10.31;88.63
43820;BME280;67762;52.476;6.046;2023-03-23T05:40:05;100024.34;;;10.31;89.49
43820;BME280;67762;52.476;6.046;2023-03-23T05:42:39;100005.66;;;10.31;89.59
43820;BME280;67762;52.476;6.046;2023-03-23T05:45:15;100026.53;;;10.28;89.56
43820;BME280;67762;52.476;6.046;2023-03-23T05:47:42;100013.75;;;10.23;89.85
43820;BME280;67762;52.476;6.046;2023-03-23T05:50:13;100032.22;;;10.25;90.02
43820;BME280;67762;52.476;6.046;2023-03-23T05:52:40;100023.03;;;10.27;89.92
43820;BME280;67762;52.476;6.046;2023-03-23T05:55:09;100032.31;;;10.31;90.41
43820;BME280;67762;52.476;6.046;2023-03-23T05:57:37;100042.44;;;10.36;90.40
43820;BME280;67762;52.476;6.046;2023-03-23T06:00:13;100032.25;;;10.39;90.25
43820;BME280;67762;52.476;6.046;2023-03-23T06:02:41;100031.72;;;10.44;90.08
43820;BME280;67762;52.476;6.046;2023-03-23T06:05:11;100033.81;;;10.48;90.30
43820;BME280;67762;52.476;6.046;2023-03-23T06:07:43;100041.81;;;10.48;91.00
43820;BME280;67762;52.476;6.046;2023-03-23T06:10:10;100051.31;;;10.51;90.44
43820;BME280;67762;52.476;6.046;2023-03-23T06:12:41;100046.81;;;10.51;90.34
43820;BME280;67762;52.476;6.046;2023-03-23T06:15:25;100053.25;;;10.57;90.50
43820;BME280;67762;52.476;6.046;2023-03-23T06:18:03;100056.00;;;10.64;91.41
43820;BME280;67762;52.476;6.046;2023-03-23T06:20:53;100061.78;;;10.67;91.01
43820;BME280;67762;52.476;6.046;2023-03-23T06:23:30;100075.03;;;10.75;90.82
43820;BME280;67762;52.476;6.046;2023-03-23T06:26:02;100067.72;;;10.77;91.14
43820;BME280;67762;52.476;6.046;2023-03-23T06:28:29;100069.34;;;10.78;90.61
43820;BME280;67762;52.476;6.046;2023-03-23T06:30:59;100077.81;;;10.82;90.36
43820;BME280;67762;52.476;6.046;2023-03-23T06:33:26;100070.44;;;10.84;90.98
43820;BME280;67762;52.476;6.046;2023-03-23T06:36:19;100068.41;;;10.86;90.17
43820;BME280;67762;52.476;6.046;2023-03-23T06:38:51;100091.16;;;10.82;89.38
43820;BME280;67762;52.476;6.046;2023-03-23T06:41:23;100092.00;;;10.82;90.03
43820;BME280;67762;52.476;6.046;2023-03-23T06:43:49;100084.34;;;10.79;89.36
43820;BME280;67762;52.476;6.046;2023-03-23T06:46:24;100095.03;;;10.79;88.71
43820;BME280;67762;52.476;6.046;2023-03-23T06:49:09;100080.84;;;10.79;88.41
43820;BME280;67762;52.476;6.046;2023-03-23T06:51:44;100095.03;;;10.79;88.34
43820;BME280;67762;52.476;6.046;2023-03-23T06:54:11;100101.19;;;10.80;87.84
43820;BME280;67762;52.476;6.046;2023-03-23T06:56:39;100093.00;;;10.81;88.16
43820;BME280;67762;52.476;6.046;2023-03-23T06:59:06;100110.94;;;10.87;87.18
43820;BME280;67762;52.476;6.046;2023-03-23T07:01:32;100103.50;;;10.83;88.00
43820;BME280;67762;52.476;6.046;2023-03-23T07:04:00;100101.63;;;10.83;87.96
43820;BME280;67762;52.476;6.046;2023-03-23T07:06:36;100105.34;;;10.82;87.42
43820;BME280;67762;52.476;6.046;2023-03-23T07:09:06;100110.47;;;10.84;87.80
43820;BME280;67762;52.476;6.046;2023-03-23T07:11:32;100108.72;;;10.76;88.14
43820;BME280;67762;52.476;6.046;2023-03-23T07:14:03;100110.75;;;10.74;87.32
43820;BME280;67762;52.476;6.046;2023-03-23T07:16:30;100099.72;;;10.77;87.44
43820;BME280;67762;52.476;6.046;2023-03-23T07:18:56;100104.66;;;10.80;88.38
43820;BME280;67762;52.476;6.046;2023-03-23T07:21:22;100107.63;;;10.85;88.59
43820;BME280;67762;52.476;6.046;2023-03-23T07:23:48;100109.53;;;10.91;87.95
43820;BME280;67762;52.476;6.046;2023-03-23T07:26:22;100106.16;;;10.97;88.32
43820;BME280;67762;52.476;6.046;2023-03-23T07:28:53;100113.25;;;11.05;88.00
43820;BME280;67762;52.476;6.046;2023-03-23T07:31:47;100118.94;;;11.16;88.64
43820;BME280;67762;52.476;6.046;2023-03-23T07:34:14;100116.16;;;11.25;89.04
43820;BME280;67762;52.476;6.046;2023-03-23T07:36:58;100110.56;;;11.34;88.17
43820;BME280;67762;52.476;6.046;2023-03-23T07:39:27;100124.63;;;11.43;89.25
43820;BME280;67762;52.476;6.046;2023-03-23T07:41:55;100120.03;;;11.51;88.46
43820;BME280;67762;52.476;6.046;2023-03-23T07:44:34;100119.91;;;11.59;88.42
43820;BME280;67762;52.476;6.046;2023-03-23T07:47:05;100113.16;;;11.63;88.83
43820;BME280;67762;52.476;6.046;2023-03-23T07:49:32;100116.03;;;11.62;87.40
43820;BME280;67762;52.476;6.046;2023-03-23T07:52:14;100123.03;;;11.63;87.17
43820;BME280;67762;52.476;6.046;2023-03-23T07:54:40;100130.47;;;11.67;87.92
43820;BME280;67762;52.476;6.046;2023-03-23T07:57:14;100143.75;;;11.76;86.83
43820;BME280;67762;52.476;6.046;2023-03-23T07:59:46;100135.16;;;11.80;86.45
43820;BME280;67762;52.476;6.046;2023-03-23T08:02:12;100141.53;;;11.79;86.30
43820;BME280;67762;52.476;6.046;2023-03-23T08:04:52;100146.88;;;11.79;86.17
43820;BME280;67762;52.476;6.046;2023-03-23T08:07:37;100144.38;;;11.78;86.45
43820;BME280;67762;52.476;6.046;2023-03-23T08:10:15;100155.28;;;11.76;86.59
43820;BME280;67762;52.476;6.046;2023-03-23T08:13:15;100157.75;;;11.78;86.00
43820;BME280;67762;52.476;6.046;2023-03-23T08:15:41;100141.16;;;11.82;85.74
43820;BME280;67762;52.476;6.046;2023-03-23T08:18:31;100147.78;;;11.86;85.41
43820;BME280;67762;52.476;6.046;2023-03-23T08:21:18;100149.91;;;11.91;85.68
43820;BME280;67762;52.476;6.046;2023-03-23T08:24:18;100155.97;;;11.99;85.60
43820;BME280;67762;52.476;6.046;2023-03-23T08:27:00;100165.06;;;12.05;86.14
43820;BME280;67762;52.476;6.046;2023-03-23T08:29:46;100171.31;;;12.12;85.41
43820;BME280;67762;52.476;6.046;2023-03-23T08:32:37;100158.38;;;12.15;85.10
43820;BME280;67762;52.476;6.046;2023-03-23T08:35:28;100146.66;;;12.16;84.92
43820;BME280;67762;52.476;6.046;2023-03-23T08:38:05;100150.03;;;12.25;84.34
43820;BME280;67762;52.476;6.046;2023-03-23T08:40:51;100168.25;;;12.36;84.80
43820;BME280;67762;52.476;6.046;2023-03-23T08:43:36;100182.53;;;12.43;84.01
43820;BME280;67762;52.476;6.046;2023-03-23T08:46:32;100192.56;;;12.41;83.98
43820;BME280;67762;52.476;6.046;2023-03-23T08:49:16;100194.44;;;12.41;84.07
43820;BME280;67762;52.476;6.046;2023-03-23T08:52:09;100184.88;;;12.31;82.71
43820;BME280;67762;52.476;6.046;2023-03-23T08:54:49;100188.22;;;12.19;82.59
43820;BME280;67762;52.476;6.046;2023-03-23T08:57:41;100195.81;;;12.15;82.42
43820;BME280;67762;52.476;6.046;2023-03-23T09:00:27;100195.63;;;12.17;83.15
43820;BME280;67762;52.476;6.046;2023-03-23T09:03:13;100193.88;;;12.24;82.95
43820;BME280;67762;52.476;6.046;2023-03-23T09:06:02;100174.44;;;12.37;82.96
43820;BME280;67762;52.476;6.046;2023-03-23T09:08:42;100204.81;;;12.50;83.23
43820;BME280;67762;52.476;6.046;2023-03-23T09:11:09;100187.16;;;12.56;83.37
43820;BME280;67762;52.476;6.046;2023-03-23T09:13:36;100188.81;;;12.57;82.99
43820;BME280;67762;52.476;6.046;2023-03-23T09:16:03;100194.34;;;12.55;82.33
43820;BME280;67762;52.476;6.046;2023-03-23T09:18:30;100189.13;;;12.47;81.82
43820;BME280;67762;52.476;6.046;2023-03-23T09:20:58;100197.28;;;12.39;81.62
43820;BME280;67762;52.476;6.046;2023-03-23T09:23:25;100200.56;;;12.35;82.21
43820;BME280;67762;52.476;6.046;2023-03-23T09:25:51;100207.00;;;12.40;82.90
43820;BME280;67762;52.476;6.046;2023-03-23T09:28:18;100200.22;;;12.44;81.88
43820;BME280;67762;52.476;6.046;2023-03-23T09:30:44;100202.81;;;12.80;81.93
43820;BME280;67762;52.476;6.046;2023-03-23T09:33:11;100212.88;;;13.27;81.77
43820;BME280;67762;52.476;6.046;2023-03-23T09:35:37;100210.03;;;13.76;81.93
43820;BME280;67762;52.476;6.046;2023-03-23T09:38:05;100217.59;;;14.06;81.10
43820;BME280;67762;52.476;6.046;2023-03-23T09:41:00;100202.16;;;14.22;80.14
43820;BME280;67762;52.476;6.046;2023-03-23T09:49:04;100206.59;;;13.88;74.59
43820;BME280;67762;52.476;6.046;2023-03-23T09:51:56;100206.22;;;13.98;75.52
43820;BME280;67762;52.476;6.046;2023-03-23T09:54:28;100203.09;;;13.88;74.50
43820;BME280;67762;52.476;6.046;2023-03-23T09:56:57;100206.75;;;13.80;73.96
43820;BME280;67762;52.476;6.046;2023-03-23T10:02:23;100218.75;;;13.84;73.65
43820;BME280;67762;52.476;6.046;2023-03-23T10:04:52;100213.81;;;13.94;74.11
43820;BME280;67762;52.476;6.046;2023-03-23T10:07:23;100208.28;;;13.96;73.17
43820;BME280;67762;52.476;6.046;2023-03-23T10:10:01;100221.63;;;13.83;72.18
43820;BME280;67762;52.476;6.046;2023-03-23T10:15:14;100215.31;;;14.03;72.13
43820;BME280;67762;52.476;6.046;2023-03-23T10:17:52;100226.25;;;14.08;72.56
43820;BME280;67762;52.476;6.046;2023-03-23T10:20:30;100229.53;;;13.91;71.95
43820;BME280;67762;52.476;6.046;2023-03-23T10:23:24;100230.19;;;14.06;71.67
43820;BME280;67762;52.476;6.046;2023-03-23T10:28:41;100239.00;;;14.41;71.31
43820;BME280;67762;52.476;6.046;2023-03-23T10:31:13;100236.50;;;14.52;69.87
43820;BME280;67762;52.476;6.046;2023-03-23T10:33:53;100227.66;;;14.91;69.89
43820;BME280;67762;52.476;6.046;2023-03-23T10:39:11;100234.69;;;15.32;69.36
43820;BME280;67762;52.476;6.046;2023-03-23T10:41:38;100231.34;;;15.43;68.57
43820;BME280;67762;52.476;6.046;2023-03-23T10:44:30;100227.03;;;15.35;68.25
43820;BME280;67762;52.476;6.046;2023-03-23T10:47:03;100236.31;;;15.46;68.30
43820;BME280;67762;52.476;6.046;2023-03-23T10:49:43;100231.16;;;15.38;67.63
43820;BME280;67762;52.476;6.046;2023-03-23T10:52:33;100221.03;;;15.20;65.99
43820;BME280;67762;52.476;6.046;2023-03-23T10:55:05;100208.44;;;14.94;66.50
43820;BME280;67762;52.476;6.046;2023-03-23T10:57:34;100215.06;;;14.98;65.37
43820;BME280;67762;52.476;6.046;2023-03-23T11:02:36;100225.41;;;14.95;66.27
43820;BME280;67762;52.476;6.046;2023-03-23T11:05:09;100237.38;;;14.86;66.54
43820;BME280;67762;52.476;6.046;2023-03-23T11:07:39;100248.16;;;14.99;66.52
43820;BME280;67762;52.476;6.046;2023-03-23T11:10:20;100228.09;;;15.14;66.36
43820;BME280;67762;52.476;6.046;2023-03-23T11:12:46;100248.13;;;15.25;65.56
43820;BME280;67762;52.476;6.046;2023-03-23T11:15:32;100236.53;;;15.24;65.06
43820;BME280;67762;52.476;6.046;2023-03-23T11:18:04;100255.53;;;15.36;64.85
43820;BME280;67762;52.476;6.046;2023-03-23T11:20:35;100253.72;;;15.23;64.57
43820;BME280;67762;52.476;6.046;2023-03-23T11:28:45;100237.78;;;15.35;65.15
43820;BME280;67762;52.476;6.046;2023-03-23T11:31:11;100254.75;;;15.49;64.08
43820;BME280;67762;52.476;6.046;2023-03-23T11:33:46;100240.66;;;15.47;62.83
43820;BME280;67762;52.476;6.046;2023-03-23T11:36:12;100246.66;;;15.36;61.74
43820;BME280;67762;52.476;6.046;2023-03-23T11:38:40;100255.34;;;15.05;61.82
43820;BME280;67762;52.476;6.046;2023-03-23T11:41:11;100272.72;;;14.89;62.95
43820;BME280;67762;52.476;6.046;2023-03-23T11:43:44;100250.41;;;14.82;61.95
43820;BME280;67762;52.476;6.046;2023-03-23T11:46:20;100248.94;;;14.67;62.01
43820;BME280;67762;52.476;6.046;2023-03-23T11:48:57;100254.50;;;14.58;61.73
43820;BME280;67762;52.476;6.046;2023-03-23T11:51:41;100266.69;;;14.54;62.60
43820;BME280;67762;52.476;6.046;2023-03-23T11:54:32;100265.63;;;14.55;62.96
43820;BME280;67762;52.476;6.046;2023-03-23T11:56:59;100262.97;;;14.49;63.00
43820;BME280;67762;52.476;6.046;2023-03-23T11:59:32;100253.88;;;14.43;61.68
43820;BME280;67762;52.476;6.046;2023-03-23T12:05:04;100275.22;;;14.91;60.92
43820;BME280;67762;52.476;6.046;2023-03-23T12:12:42;100278.09;;;15.29;59.17
43820;BME280;67762;52.476;6.046;2023-03-23T12:15:19;100253.91;;;15.22;56.86
43820;BME280;67762;52.476;6.046;2023-03-23T12:20:42;100253.28;;;14.94;58.32
43820;BME280;67762;52.476;6.046;2023-03-23T12:26:01;100253.31;;;14.74;59.19
43820;BME280;67762;52.476;6.046;2023-03-23T12:34:27;100257.22;;;14.91;58.31
43820;BME280;67762;52.476;6.046;2023-03-23T12:46:08;100254.31;;;15.19;58.88
43820;BME280;67762;52.476;6.046;2023-03-23T12:48:42;100254.72;;;15.16;58.55
43820;BME280;67762;52.476;6.046;2023-03-23T12:51:19;100253.94;;;15.15;57.61
43820;BME280;67762;52.476;6.046;2023-03-23T12:56:53;100256.00;;;15.00;57.83
43820;BME280;67762;52.476;6.046;2023-03-23T13:02:16;100250.38;;;14.62;59.38
43820;BME280;67762;52.476;6.046;2023-03-23T13:08:22;100254.50;;;14.72;62.22
43820;BME280;67762;52.476;6.046;2023-03-23T13:10:56;100244.44;;;14.93;62.01
43820;BME280;67762;52.476;6.046;2023-03-23T13:13:45;100243.34;;;15.27;60.73
43820;BME280;67762;52.476;6.046;2023-03-23T13:22:16;100225.50;;;15.78;56.84
43820;BME280;67762;52.476;6.046;2023-03-23T13:28:30;100231.94;;;15.58;56.83
43820;BME280;67762;52.476;6.046;2023-03-23T13:33:29;100248.53;;;15.55;55.71
43820;BME280;67762;52.476;6.046;2023-03-23T13:35:57;100254.72;;;15.62;55.27
43820;BME280;67762;52.476;6.046;2023-03-23T13:38:30;100242.88;;;15.83;54.94
43820;BME280;67762;52.476;6.046;2023-03-23T13:40:57;100235.53;;;16.03;53.25
43820;BME280;67762;52.476;6.046;2023-03-23T13:43:34;100226.44;;;15.97;53.14
43820;BME280;67762;52.476;6.046;2023-03-23T13:48:49;100235.50;;;15.52;53.37
43820;BME280;67762;52.476;6.046;2023-03-23T13:54:37;100241.91;;;15.57;54.47
43820;BME280;67762;52.476;6.046;2023-03-23T13:57:24;100239.72;;;15.86;54.34
43820;BME280;67762;52.476;6.046;2023-03-23T13:59:58;100247.34;;;16.02;54.33
43820;BME280;67762;52.476;6.046;2023-03-23T14:02:42;100235.69;;;16.14;53.49
43820;BME280;67762;52.476;6.046;2023-03-23T14:05:30;100247.13;;;16.03;53.56
43820;BME280;67762;52.476;6.046;2023-03-23T14:10:38;100249.53;;;15.67;54.70
43820;BME280;67762;52.476;6.046;2023-03-23T14:13:11;100248.50;;;15.61;55.23
43820;BME280;67762;52.476;6.046;2023-03-23T14:16:21;100259.69;;;15.45;56.35
43820;BME280;67762;52.476;6.046;2023-03-23T14:21:35;100240.72;;;15.07;56.57
43820;BME280;67762;52.476;6.046;2023-03-23T14:24:12;100259.72;;;14.80;58.43
43820;BME280;67762;52.476;6.046;2023-03-23T14:26:41;100249.13;;;14.58;60.05
43820;BME280;67762;52.476;6.046;2023-03-23T14:29:11;100249.75;;;14.67;60.75
43820;BME280;67762;52.476;6.046;2023-03-23T14:31:39;100233.28;;;14.96;60.72
43820;BME280;67762;52.476;6.046;2023-03-23T14:34:14;100227.06;;;15.15;61.01
43820;BME280;67762;52.476;6.046;2023-03-23T14:36:41;100231.59;;;15.15;60.38
43820;BME280;67762;52.476;6.046;2023-03-23T14:39:35;100241.31;;;15.03;58.60
43820;BME280;67762;52.476;6.046;2023-03-23T14:42:05;100238.19;;;14.99;59.20
43820;BME280;67762;52.476;6.046;2023-03-23T14:44:36;100245.47;;;14.99;59.30
43820;BME280;67762;52.476;6.046;2023-03-23T14:53:33;100246.25;;;14.86;59.95
43820;BME280;67762;52.476;6.046;2023-03-23T14:56:54;100264.06;;;14.87;60.02
43820;BME280;67762;52.476;6.046;2023-03-23T15:13:35;100220.00;;;14.55;60.41
43820;BME280;67762;52.476;6.046;2023-03-23T15:16:07;100232.09;;;14.25;62.35
43820;BME280;67762;52.476;6.046;2023-03-23T15:18:38;100246.53;;;13.70;66.08
43820;BME280;67762;52.476;6.046;2023-03-23T15:21:19;100216.31;;;13.48;68.31
43820;BME280;67762;52.476;6.046;2023-03-23T15:23:45;100215.56;;;13.27;68.96
43820;BME280;67762;52.476;6.046;2023-03-23T15:26:28;100231.44;;;13.28;70.42
43820;BME280;67762;52.476;6.046;2023-03-23T15:29:21;100227.38;;;13.11;71.79
43820;BME280;67762;52.476;6.046;2023-03-23T15:31:54;100240.28;;;13.01;71.96
43820;BME280;67762;52.476;6.046;2023-03-23T15:34:29;100239.53;;;13.07;72.99
43820;BME280;67762;52.476;6.046;2023-03-23T15:36:58;100228.56;;;13.30;73.68